sensor_id;sensor_type;location;lat;lon;timestamp;pressure;altitude;pressure_sealevel;temperature;humidity
32197;BME280;18697;42.770;23.400;2024-03-25T00:00:30;94287.00;;;7.83;83.39
32197;BME280;18697;42.770;23.400;2024-03-25T00:02:56;94293.78;;;7.52;82.98
32197;BME280;18697;42.770;23.400;2024-03-25T00:05:21;94301.22;;;7.46;83.65
32197;BME280;18697;42.770;23.400;2024-03-25T00:07:51;94309.41;;;7.55;84.30
32197;BME280;18697;42.770;23.400;2024-03-25T00:10:17;94319.22;;;7.27;83.28
32197;BME280;18697;42.770;23.400;2024-03-25T00:12:43;94332.94;;;7.36;84.41
32197;BME280;18697;42.770;23.400;2024-03-25T00:15:09;94306.53;;;7.06;82.65
32197;BME280;18697;42.770;23.400;2024-03-25T00:17:34;94311.75;;;7.04;83.58
32197;BME280;18697;42.770;23.400;2024-03-25T00:19:59;94298.09;;;6.85;82.75
32197;BME280;18697;42.770;23.400;2024-03-25T00:22:25;94295.97;;;6.80;83.05
32197;BME280;18697;42.770;23.400;2024-03-25T00:24:51;94302.22;;;7.05;85.04
32197;BME280;18697;42.770;23.400;2024-03-25T00:27:16;94295.75;;;7.08;83.86
32197;BME280;18697;42.770;23.400;2024-03-25T00:29:42;94302.16;;;7.14;83.73
32197;BME280;18697;42.770;23.400;2024-03-25T00:32:07;94296.94;;;7.45;86.13
32197;BME280;18697;42.770;23.400;2024-03-25T00:34:33;94293.41;;;7.45;84.47
32197;BME280;18697;42.770;23.400;2024-03-25T00:36:59;94285.97;;;7.80;84.67
32197;BME280;18697;42.770;23.400;2024-03-25T00:39:25;94286.72;;;7.96;83.91
32197;BME280;18697;42.770;23.400;2024-03-25T00:41:52;94284.53;;;8.35;86.48
32197;BME280;18697;42.770;23.400;2024-03-25T00:44:17;94283.31;;;8.56;84.61
32197;BME280;18697;42.770;23.400;2024-03-25T00:46:43;94285.19;;;8.30;81.12
32197;BME280;18697;42.770;23.400;2024-03-25T00:49:08;94302.06;;;8.32;79.28
32197;BME280;18697;42.770;23.400;2024-03-25T00:51:34;94306.19;;;7.72;77.22
32197;BME280;18697;42.770;23.400;2024-03-25T00:53:59;94305.03;;;7.49;79.25
32197;BME280;18697;42.770;23.400;2024-03-25T00:56:25;94301.03;;;7.20;79.50
32197;BME280;18697;42.770;23.400;2024-03-25T00:58:50;94305.50;;;7.18;80.46
32197;BME280;18697;42.770;23.400;2024-03-25T01:01:15;94303.78;;;7.79;88.15
32197;BME280;18697;42.770;23.400;2024-03-25T01:03:41;94291.88;;;7.73;81.57
32197;BME280;18697;42.770;23.400;2024-03-25T01:06:06;94286.91;;;7.92;82.89
32197;BME280;18697;42.770;23.400;2024-03-25T01:08:32;94282.34;;;8.24;83.26
32197;BME280;18697;42.770;23.400;2024-03-25T01:10:57;94279.00;;;8.35;80.64
32197;BME280;18697;42.770;23.400;2024-03-25T01:13:22;94279.38;;;8.83;81.60
32197;BME280;18697;42.770;23.400;2024-03-25T01:15:48;94266.59;;;8.85;81.01
32197;BME280;18697;42.770;23.400;2024-03-25T01:18:13;94257.75;;;9.33;84.54
32197;BME280;18697;42.770;23.400;2024-03-25T01:20:38;94260.63;;;9.44;77.61
32197;BME280;18697;42.770;23.400;2024-03-25T01:23:04;94251.78;;;9.72;79.95
32197;BME280;18697;42.770;23.400;2024-03-25T01:25:30;94254.88;;;10.11;80.02
32197;BME280;18697;42.770;23.400;2024-03-25T01:27:55;94262.84;;;9.98;76.36
32197;BME280;18697;42.770;23.400;2024-03-25T01:30:21;94267.00;;;10.13;79.87
32197;BME280;18697;42.770;23.400;2024-03-25T01:32:47;94268.06;;;9.90;75.10
32197;BME280;18697;42.770;23.400;2024-03-25T01:35:14;94244.50;;;9.74;73.97
32197;BME280;18697;42.770;23.400;2024-03-25T01:37:40;94268.16;;;9.70;76.38
32197;BME280;18697;42.770;23.400;2024-03-25T01:40:07;94282.44;;;9.57;77.97
32197;BME280;18697;42.770;23.400;2024-03-25T01:42:32;94286.94;;;9.86;76.89
32197;BME280;18697;42.770;23.400;2024-03-25T01:44:58;94289.22;;;9.56;75.84
32197;BME280;18697;42.770;23.400;2024-03-25T01:47:23;94298.94;;;9.00;73.18
32197;BME280;18697;42.770;23.400;2024-03-25T01:49:49;94307.63;;;8.87;75.80
32197;BME280;18697;42.770;23.400;2024-03-25T01:52:19;94299.00;;;9.05;76.46
32197;BME280;18697;42.770;23.400;2024-03-25T01:54:46;94302.56;;;9.32;79.08
32197;BME280;18697;42.770;23.400;2024-03-25T01:57:11;94301.84;;;9.11;77.28
32197;BME280;18697;42.770;23.400;2024-03-25T01:59:37;94290.13;;;8.75;74.79
32197;BME280;18697;42.770;23.400;2024-03-25T02:02:04;94291.00;;;8.32;73.94
32197;BME280;18697;42.770;23.400;2024-03-25T02:04:29;94286.72;;;7.96;75.82
32197;BME280;18697;42.770;23.400;2024-03-25T02:06:56;94305.78;;;7.64;77.31
32197;BME280;18697;42.770;23.400;2024-03-25T02:09:23;94305.88;;;7.55;78.57
32197;BME280;18697;42.770;23.400;2024-03-25T02:11:50;94308.28;;;7.33;79.77
32197;BME280;18697;42.770;23.400;2024-03-25T02:14:16;94303.69;;;7.59;84.06
32197;BME280;18697;42.770;23.400;2024-03-25T02:16:42;94289.41;;;7.61;81.97
32197;BME280;18697;42.770;23.400;2024-03-25T02:19:08;94306.84;;;7.52;78.34
32197;BME280;18697;42.770;23.400;2024-03-25T02:21:35;94310.84;;;7.95;84.29
32197;BME280;18697;42.770;23.400;2024-03-25T02:24:02;94312.19;;;7.70;78.66
32197;BME280;18697;42.770;23.400;2024-03-25T02:26:30;94317.91;;;7.67;79.53
32197;BME280;18697;42.770;23.400;2024-03-25T02:28:56;94307.50;;;7.62;82.13
32197;BME280;18697;42.770;23.400;2024-03-25T02:31:21;94287.00;;;7.83;81.16
32197;BME280;18697;42.770;23.400;2024-03-25T02:33:47;94294.25;;;8.30;78.70
32197;BME280;18697;42.770;23.400;2024-03-25T02:36:12;94294.34;;;8.01;76.74
32197;BME280;18697;42.770;23.400;2024-03-25T02:38:37;94291.47;;;8.30;78.47
32197;BME280;18697;42.770;23.400;2024-03-25T02:41:03;94306.34;;;7.98;75.35
32197;BME280;18697;42.770;23.400;2024-03-25T02:43:29;94311.41;;;7.84;77.67
32197;BME280;18697;42.770;23.400;2024-03-25T02:45:54;94299.13;;;7.85;78.19
32197;BME280;18697;42.770;23.400;2024-03-25T02:48:19;94300.84;;;7.39;76.56
32197;BME280;18697;42.770;23.400;2024-03-25T02:50:45;94298.75;;;7.19;76.93
32197;BME280;18697;42.770;23.400;2024-03-25T02:53:10;94295.44;;;6.91;77.19
32197;BME280;18697;42.770;23.400;2024-03-25T02:55:36;94289.16;;;6.90;78.56
32197;BME280;18697;42.770;23.400;2024-03-25T02:58:01;94306.59;;;6.58;78.67
32197;BME280;18697;42.770;23.400;2024-03-25T03:00:27;94314.91;;;6.49;80.30
32197;BME280;18697;42.770;23.400;2024-03-25T03:02:52;94318.75;;;6.18;80.16
32197;BME280;18697;42.770;23.400;2024-03-25T03:05:18;94320.88;;;6.23;80.64
32197;BME280;18697;42.770;23.400;2024-03-25T03:07:43;94325.38;;;6.12;81.55
32197;BME280;18697;42.770;23.400;2024-03-25T03:10:09;94335.03;;;6.07;82.30
32197;BME280;18697;42.770;23.400;2024-03-25T03:12:34;94329.91;;;5.91;81.62
32197;BME280;18697;42.770;23.400;2024-03-25T03:15:00;94303.88;;;5.83;81.87
32197;BME280;18697;42.770;23.400;2024-03-25T03:17:25;94316.53;;;5.99;83.07
32197;BME280;18697;42.770;23.400;2024-03-25T03:19:50;94322.13;;;5.80;82.03
32197;BME280;18697;42.770;23.400;2024-03-25T03:22:16;94334.50;;;5.94;83.41
32197;BME280;18697;42.770;23.400;2024-03-25T03:24:41;94325.00;;;5.86;82.81
32197;BME280;18697;42.770;23.400;2024-03-25T03:27:07;94328.72;;;5.74;83.23
32197;BME280;18697;42.770;23.400;2024-03-25T03:29:32;94315.84;;;5.80;84.22
32197;BME280;18697;42.770;23.400;2024-03-25T03:31:58;94327.16;;;5.82;83.28
32197;BME280;18697;42.770;23.400;2024-03-25T03:34:23;94341.41;;;5.89;84.11
32197;BME280;18697;42.770;23.400;2024-03-25T03:36:49;94351.59;;;5.98;84.00
32197;BME280;18697;42.770;23.400;2024-03-25T03:39:15;94363.53;;;6.04;83.47
32197;BME280;18697;42.770;23.400;2024-03-25T03:41:41;94350.88;;;5.79;82.94
32197;BME280;18697;42.770;23.400;2024-03-25T03:44:06;94346.00;;;5.74;82.77
32197;BME280;18697;42.770;23.400;2024-03-25T03:46:31;94344.31;;;5.77;84.06
32197;BME280;18697;42.770;23.400;2024-03-25T03:48:57;94362.53;;;5.74;83.45
32197;BME280;18697;42.770;23.400;2024-03-25T03:51:22;94367.59;;;5.76;84.60
32197;BME280;18697;42.770;23.400;2024-03-25T03:53:48;94371.25;;;5.91;85.09
32197;BME280;18697;42.770;23.400;2024-03-25T03:56:13;94372.16;;;5.79;84.10
32197;BME280;18697;42.770;23.400;2024-03-25T03:58:38;94386.25;;;5.72;84.15
32197;BME280;18697;42.770;23.400;2024-03-25T04:01:04;94371.41;;;5.69;84.55
32197;BME280;18697;42.770;23.400;2024-03-25T04:03:30;94382.13;;;5.76;84.04
32197;BME280;18697;42.770;23.400;2024-03-25T04:05:55;94378.63;;;5.67;84.27
32197;BME280;18697;42.770;23.400;2024-03-25T04:08:21;94374.88;;;5.97;86.02
32197;BME280;18697;42.770;23.400;2024-03-25T04:10:46;94390.06;;;5.83;83.70
32197;BME280;18697;42.770;23.400;2024-03-25T04:13:12;94403.09;;;5.74;84.43
32197;BME280;18697;42.770;23.400;2024-03-25T04:15:39;94405.41;;;5.66;84.80
32197;BME280;18697;42.770;23.400;2024-03-25T04:18:05;94412.16;;;5.56;84.61
32197;BME280;18697;42.770;23.400;2024-03-25T04:20:41;94413.38;;;5.55;85.15
32197;BME280;18697;42.770;23.400;2024-03-25T04:23:07;94415.34;;;5.54;85.68
32197;BME280;18697;42.770;23.400;2024-03-25T04:25:36;94404.19;;;5.49;86.10
32197;BME280;18697;42.770;23.400;2024-03-25T04:28:03;94420.56;;;5.52;85.93
32197;BME280;18697;42.770;23.400;2024-03-25T04:30:28;94422.69;;;5.48;86.50
32197;BME280;18697;42.770;23.400;2024-03-25T04:32:54;94416.72;;;5.68;87.40
32197;BME280;18697;42.770;23.400;2024-03-25T04:35:19;94420.88;;;5.54;86.27
32197;BME280;18697;42.770;23.400;2024-03-25T04:37:44;94415.34;;;5.64;86.35
32197;BME280;18697;42.770;23.400;2024-03-25T04:40:10;94418.41;;;5.75;85.88
32197;BME280;18697;42.770;23.400;2024-03-25T04:42:39;94420.84;;;5.64;85.96
32197;BME280;18697;42.770;23.400;2024-03-25T04:45:05;94435.09;;;5.71;86.60
32197;BME280;18697;42.770;23.400;2024-03-25T04:47:30;94446.25;;;5.86;87.45
32197;BME280;18697;42.770;23.400;2024-03-25T04:49:56;94467.22;;;5.92;86.30
32197;BME280;18697;42.770;23.400;2024-03-25T04:52:21;94466.38;;;6.19;86.06
32197;BME280;18697;42.770;23.400;2024-03-25T04:54:49;94455.88;;;6.00;84.35
32197;BME280;18697;42.770;23.400;2024-03-25T04:57:14;94460.66;;;5.90;84.51
32197;BME280;18697;42.770;23.400;2024-03-25T04:59:40;94465.53;;;5.95;85.06
32197;BME280;18697;42.770;23.400;2024-03-25T05:02:05;94474.06;;;6.06;85.30
32197;BME280;18697;42.770;23.400;2024-03-25T05:04:30;94464.56;;;6.07;85.07
32197;BME280;18697;42.770;23.400;2024-03-25T05:06:56;94468.75;;;5.93;84.38
32197;BME280;18697;42.770;23.400;2024-03-25T05:09:21;94471.16;;;6.10;85.28
32197;BME280;18697;42.770;23.400;2024-03-25T05:11:47;94464.69;;;6.22;84.15
32197;BME280;18697;42.770;23.400;2024-03-25T05:14:13;94458.91;;;6.86;84.23
32197;BME280;18697;42.770;23.400;2024-03-25T05:16:38;94456.06;;;7.28;82.32
32197;BME280;18697;42.770;23.400;2024-03-25T05:19:04;94462.16;;;8.53;81.59
32197;BME280;18697;42.770;23.400;2024-03-25T05:21:31;94460.22;;;8.60;77.97
32197;BME280;18697;42.770;23.400;2024-03-25T05:23:57;94452.09;;;9.06;75.91
32197;BME280;18697;42.770;23.400;2024-03-25T05:26:22;94455.81;;;8.82;72.99
32197;BME280;18697;42.770;23.400;2024-03-25T05:28:55;94457.56;;;8.50;72.98
32197;BME280;18697;42.770;23.400;2024-03-25T05:31:21;94453.34;;;8.25;73.77
32197;BME280;18697;42.770;23.400;2024-03-25T05:33:47;94463.66;;;8.10;74.52
32197;BME280;18697;42.770;23.400;2024-03-25T05:36:13;94472.72;;;8.25;74.60
32197;BME280;18697;42.770;23.400;2024-03-25T05:38:39;94469.47;;;8.27;75.09
32197;BME280;18697;42.770;23.400;2024-03-25T05:41:04;94474.84;;;8.16;74.39
32197;BME280;18697;42.770;23.400;2024-03-25T05:43:30;94485.16;;;7.77;74.00
32197;BME280;18697;42.770;23.400;2024-03-25T05:45:56;94489.75;;;7.56;75.16
32197;BME280;18697;42.770;23.400;2024-03-25T05:48:25;94479.91;;;7.16;75.80
32197;BME280;18697;42.770;23.400;2024-03-25T05:51:00;94498.91;;;7.23;77.99
32197;BME280;18697;42.770;23.400;2024-03-25T05:53:27;94484.31;;;7.47;78.15
32197;BME280;18697;42.770;23.400;2024-03-25T05:55:52;94497.69;;;7.63;75.66
32197;BME280;18697;42.770;23.400;2024-03-25T05:58:18;94496.00;;;7.66;76.54
32197;BME280;18697;42.770;23.400;2024-03-25T06:00:43;94503.78;;;7.91;74.69
32197;BME280;18697;42.770;23.400;2024-03-25T06:03:08;94507.63;;;7.46;75.15
32197;BME280;18697;42.770;23.400;2024-03-25T06:05:34;94517.28;;;7.50;75.17
32197;BME280;18697;42.770;23.400;2024-03-25T06:07:59;94508.22;;;7.50;76.15
32197;BME280;18697;42.770;23.400;2024-03-25T06:10:24;94511.53;;;7.15;76.16
32197;BME280;18697;42.770;23.400;2024-03-25T06:12:50;94519.56;;;7.52;78.01
32197;BME280;18697;42.770;23.400;2024-03-25T06:15:15;94521.66;;;7.42;74.84
32197;BME280;18697;42.770;23.400;2024-03-25T06:17:40;94530.09;;;7.63;76.23
32197;BME280;18697;42.770;23.400;2024-03-25T06:20:06;94525.34;;;8.02;75.09
32197;BME280;18697;42.770;23.400;2024-03-25T06:22:32;94524.63;;;7.53;72.98
32197;BME280;18697;42.770;23.400;2024-03-25T06:24:57;94541.53;;;7.94;75.53
32197;BME280;18697;42.770;23.400;2024-03-25T06:27:22;94542.91;;;7.75;75.82
32197;BME280;18697;42.770;23.400;2024-03-25T06:29:48;94553.38;;;7.71;74.92
32197;BME280;18697;42.770;23.400;2024-03-25T06:32:13;94549.84;;;7.70;75.58
32197;BME280;18697;42.770;23.400;2024-03-25T06:34:57;94549.38;;;7.72;72.24
32197;BME280;18697;42.770;23.400;2024-03-25T06:37:26;94558.28;;;8.14;74.22
32197;BME280;18697;42.770;23.400;2024-03-25T06:39:51;94561.94;;;7.97;73.47
32197;BME280;18697;42.770;23.400;2024-03-25T06:42:17;94562.31;;;7.66;73.29
32197;BME280;18697;42.770;23.400;2024-03-25T06:44:42;94569.53;;;7.63;73.94
32197;BME280;18697;42.770;23.400;2024-03-25T06:47:08;94568.13;;;7.91;73.60
32197;BME280;18697;42.770;23.400;2024-03-25T06:49:33;94567.66;;;7.93;72.69
32197;BME280;18697;42.770;23.400;2024-03-25T06:51:59;94570.34;;;8.02;72.58
32197;BME280;18697;42.770;23.400;2024-03-25T06:54:24;94584.94;;;7.79;71.05
32197;BME280;18697;42.770;23.400;2024-03-25T06:56:49;94586.78;;;7.82;73.08
32197;BME280;18697;42.770;23.400;2024-03-25T06:59:15;94582.41;;;7.90;74.33
32197;BME280;18697;42.770;23.400;2024-03-25T07:01:40;94596.69;;;8.12;74.29
32197;BME280;18697;42.770;23.400;2024-03-25T07:04:06;94585.34;;;8.10;71.75
32197;BME280;18697;42.770;23.400;2024-03-25T07:06:31;94600.81;;;8.32;72.56
32197;BME280;18697;42.770;23.400;2024-03-25T07:08:56;94593.81;;;8.45;69.87
32197;BME280;18697;42.770;23.400;2024-03-25T07:11:22;94599.75;;;8.53;69.48
32197;BME280;18697;42.770;23.400;2024-03-25T07:13:47;94604.50;;;8.38;68.67
32197;BME280;18697;42.770;23.400;2024-03-25T07:16:13;94604.19;;;8.36;69.99
32197;BME280;18697;42.770;23.400;2024-03-25T07:18:38;94605.84;;;8.42;69.65
32197;BME280;18697;42.770;23.400;2024-03-25T07:21:03;94602.50;;;8.38;69.20
32197;BME280;18697;42.770;23.400;2024-03-25T07:23:29;94616.31;;;8.38;71.32
32197;BME280;18697;42.770;23.400;2024-03-25T07:25:54;94601.66;;;8.08;70.45
32197;BME280;18697;42.770;23.400;2024-03-25T07:28:20;94599.81;;;8.05;71.06
32197;BME280;18697;42.770;23.400;2024-03-25T07:30:45;94594.13;;;8.09;71.67
32197;BME280;18697;42.770;23.400;2024-03-25T07:33:12;94602.00;;;8.40;70.47
32197;BME280;18697;42.770;23.400;2024-03-25T07:35:37;94608.22;;;8.49;70.99
32197;BME280;18697;42.770;23.400;2024-03-25T07:38:02;94614.06;;;8.51;71.32
32197;BME280;18697;42.770;23.400;2024-03-25T07:40:28;94612.75;;;8.76;71.79
32197;BME280;18697;42.770;23.400;2024-03-25T07:42:53;94607.22;;;8.91;69.44
32197;BME280;18697;42.770;23.400;2024-03-25T07:45:19;94609.75;;;9.24;71.21
32197;BME280;18697;42.770;23.400;2024-03-25T07:47:44;94601.22;;;9.42;69.42
32197;BME280;18697;42.770;23.400;2024-03-25T07:50:09;94620.34;;;9.40;66.48
32197;BME280;18697;42.770;23.400;2024-03-25T07:52:35;94616.16;;;9.30;65.54
32197;BME280;18697;42.770;23.400;2024-03-25T07:55:08;94622.19;;;9.14;66.10
32197;BME280;18697;42.770;23.400;2024-03-25T07:57:34;94621.34;;;9.58;68.21
32197;BME280;18697;42.770;23.400;2024-03-25T07:59:59;94608.81;;;9.62;65.89
32197;BME280;18697;42.770;23.400;2024-03-25T08:02:25;94618.69;;;9.83;66.87
32197;BME280;18697;42.770;23.400;2024-03-25T08:04:50;94613.09;;;10.18;65.68
32197;BME280;18697;42.770;23.400;2024-03-25T08:07:15;94610.91;;;10.23;66.11
32197;BME280;18697;42.770;23.400;2024-03-25T08:09:41;94614.75;;;11.03;63.64
32197;BME280;18697;42.770;23.400;2024-03-25T08:12:06;94622.69;;;10.64;64.44
32197;BME280;18697;42.770;23.400;2024-03-25T08:14:32;94618.31;;;10.77;64.31
32197;BME280;18697;42.770;23.400;2024-03-25T08:16:57;94634.94;;;10.98;63.41
32197;BME280;18697;42.770;23.400;2024-03-25T08:19:22;94617.81;;;11.05;62.96
32197;BME280;18697;42.770;23.400;2024-03-25T08:21:48;94627.50;;;10.89;60.60
32197;BME280;18697;42.770;23.400;2024-03-25T08:24:14;94633.16;;;10.74;62.96
32197;BME280;18697;42.770;23.400;2024-03-25T08:26:40;94623.69;;;10.61;63.39
32197;BME280;18697;42.770;23.400;2024-03-25T08:29:06;94632.78;;;10.61;62.12
32197;BME280;18697;42.770;23.400;2024-03-25T08:31:31;94635.81;;;10.63;62.82
32197;BME280;18697;42.770;23.400;2024-03-25T08:33:56;94637.63;;;10.46;62.93
32197;BME280;18697;42.770;23.400;2024-03-25T08:36:22;94644.50;;;10.50;62.88
32197;BME280;18697;42.770;23.400;2024-03-25T08:38:48;94641.56;;;10.34;60.42
32197;BME280;18697;42.770;23.400;2024-03-25T08:41:14;94651.91;;;10.33;62.77
32197;BME280;18697;42.770;23.400;2024-03-25T08:43:40;94650.81;;;10.10;62.83
32197;BME280;18697;42.770;23.400;2024-03-25T08:46:05;94649.25;;;9.89;64.30
32197;BME280;18697;42.770;23.400;2024-03-25T08:48:31;94656.09;;;10.08;64.78
32197;BME280;18697;42.770;23.400;2024-03-25T08:50:56;94655.81;;;9.71;60.70
32197;BME280;18697;42.770;23.400;2024-03-25T08:53:21;94651.59;;;9.76;63.98
32197;BME280;18697;42.770;23.400;2024-03-25T08:55:47;94652.88;;;9.95;66.47
32197;BME280;18697;42.770;23.400;2024-03-25T08:58:13;94659.38;;;9.92;63.51
32197;BME280;18697;42.770;23.400;2024-03-25T09:00:38;94654.47;;;10.02;61.62
32197;BME280;18697;42.770;23.400;2024-03-25T09:03:04;94657.25;;;10.02;64.44
32197;BME280;18697;42.770;23.400;2024-03-25T09:05:30;94665.38;;;10.05;63.02
32197;BME280;18697;42.770;23.400;2024-03-25T09:07:55;94662.19;;;10.12;63.28
32197;BME280;18697;42.770;23.400;2024-03-25T09:10:24;94668.16;;;10.05;63.19
32197;BME280;18697;42.770;23.400;2024-03-25T09:13:07;94663.28;;;10.00;63.26
32197;BME280;18697;42.770;23.400;2024-03-25T09:15:33;94664.38;;;9.88;60.68
32197;BME280;18697;42.770;23.400;2024-03-25T09:17:59;94674.34;;;9.80;61.06
32197;BME280;18697;42.770;23.400;2024-03-25T09:20:25;94684.78;;;10.05;62.86
32197;BME280;18697;42.770;23.400;2024-03-25T09:22:51;94677.72;;;10.04;61.89
32197;BME280;18697;42.770;23.400;2024-03-25T09:25:17;94684.22;;;10.01;63.14
32197;BME280;18697;42.770;23.400;2024-03-25T09:27:49;94687.56;;;9.70;61.25
32197;BME280;18697;42.770;23.400;2024-03-25T09:30:16;94689.97;;;9.63;62.60
32197;BME280;18697;42.770;23.400;2024-03-25T09:32:42;94693.09;;;9.70;61.49
32197;BME280;18697;42.770;23.400;2024-03-25T09:35:11;94687.75;;;9.67;62.54
32197;BME280;18697;42.770;23.400;2024-03-25T09:37:37;94695.69;;;9.74;64.47
32197;BME280;18697;42.770;23.400;2024-03-25T09:40:03;94692.13;;;9.73;63.66
32197;BME280;18697;42.770;23.400;2024-03-25T09:42:54;94688.31;;;9.71;62.68
32197;BME280;18697;42.770;23.400;2024-03-25T09:45:24;94691.53;;;9.84;64.90
32197;BME280;18697;42.770;23.400;2024-03-25T09:47:51;94686.34;;;9.92;63.58
32197;BME280;18697;42.770;23.400;2024-03-25T09:50:16;94690.41;;;9.76;62.33
32197;BME280;18697;42.770;23.400;2024-03-25T09:52:45;94683.91;;;9.79;63.99
32197;BME280;18697;42.770;23.400;2024-03-25T09:55:10;94678.84;;;9.77;63.57
32197;BME280;18697;42.770;23.400;2024-03-25T09:57:36;94683.59;;;10.27;62.30
32197;BME280;18697;42.770;23.400;2024-03-25T10:00:04;94678.06;;;10.27;60.44
32197;BME280;18697;42.770;23.400;2024-03-25T10:02:30;94681.53;;;10.22;61.49
32197;BME280;18697;42.770;23.400;2024-03-25T10:04:57;94684.50;;;10.38;61.17
32197;BME280;18697;42.770;23.400;2024-03-25T10:07:23;94684.16;;;10.31;62.99
32197;BME280;18697;42.770;23.400;2024-03-25T10:09:50;94685.75;;;10.02;62.76
32197;BME280;18697;42.770;23.400;2024-03-25T10:12:15;94682.91;;;9.97;61.98
32197;BME280;18697;42.770;23.400;2024-03-25T10:14:41;94684.06;;;9.90;62.23
32197;BME280;18697;42.770;23.400;2024-03-25T10:17:07;94686.81;;;10.40;64.24
32197;BME280;18697;42.770;23.400;2024-03-25T10:19:33;94681.66;;;10.99;66.25
32197;BME280;18697;42.770;23.400;2024-03-25T10:22:03;94681.06;;;10.69;58.46
32197;BME280;18697;42.770;23.400;2024-03-25T10:24:43;94680.81;;;10.47;59.41
32197;BME280;18697;42.770;23.400;2024-03-25T10:27:19;94670.25;;;10.51;60.07
32197;BME280;18697;42.770;23.400;2024-03-25T10:29:48;94658.31;;;10.65;60.83
32197;BME280;18697;42.770;23.400;2024-03-25T10:32:16;94657.94;;;10.78;58.94
32197;BME280;18697;42.770;23.400;2024-03-25T10:34:42;94660.88;;;10.69;56.84
32197;BME280;18697;42.770;23.400;2024-03-25T10:37:11;94663.25;;;11.02;58.53
32197;BME280;18697;42.770;23.400;2024-03-25T10:39:42;94671.19;;;11.14;57.13
32197;BME280;18697;42.770;23.400;2024-03-25T10:42:09;94662.03;;;11.66;59.26
32197;BME280;18697;42.770;23.400;2024-03-25T10:44:38;94660.44;;;11.91;55.33
32197;BME280;18697;42.770;23.400;2024-03-25T10:47:05;94655.97;;;12.04;54.95
32197;BME280;18697;42.770;23.400;2024-03-25T10:52:07;94647.72;;;12.21;55.35
32197;BME280;18697;42.770;23.400;2024-03-25T10:54:34;94654.38;;;12.35;52.75
32197;BME280;18697;42.770;23.400;2024-03-25T10:57:03;94664.72;;;12.29;54.31
32197;BME280;18697;42.770;23.400;2024-03-25T10:59:30;94650.34;;;12.41;54.33
32197;BME280;18697;42.770;23.400;2024-03-25T11:01:56;94666.63;;;12.60;52.85
32197;BME280;18697;42.770;23.400;2024-03-25T11:04:22;94652.97;;;12.62;54.51
32197;BME280;18697;42.770;23.400;2024-03-25T11:06:48;94657.25;;;12.57;53.10
32197;BME280;18697;42.770;23.400;2024-03-25T11:09:23;94653.13;;;12.41;52.26
32197;BME280;18697;42.770;23.400;2024-03-25T11:11:55;94662.47;;;12.38;51.51
32197;BME280;18697;42.770;23.400;2024-03-25T11:14:25;94655.16;;;11.98;52.08
32197;BME280;18697;42.770;23.400;2024-03-25T11:16:54;94669.03;;;11.56;51.20
32197;BME280;18697;42.770;23.400;2024-03-25T11:19:24;94683.53;;;11.39;54.37
32197;BME280;18697;42.770;23.400;2024-03-25T11:21:50;94695.94;;;11.12;56.57
32197;BME280;18697;42.770;23.400;2024-03-25T11:24:15;94684.81;;;10.86;56.96
32197;BME280;18697;42.770;23.400;2024-03-25T11:26:52;94674.69;;;10.63;55.21
32197;BME280;18697;42.770;23.400;2024-03-25T11:29:18;94675.31;;;10.73;57.97
32197;BME280;18697;42.770;23.400;2024-03-25T11:31:44;94664.63;;;10.45;59.58
32197;BME280;18697;42.770;23.400;2024-03-25T11:34:10;94668.94;;;10.46;59.58
32197;BME280;18697;42.770;23.400;2024-03-25T11:36:35;94670.31;;;10.57;60.44
32197;BME280;18697;42.770;23.400;2024-03-25T11:39:02;94665.09;;;10.84;60.50
32197;BME280;18697;42.770;23.400;2024-03-25T11:41:31;94652.28;;;11.18;60.16
32197;BME280;18697;42.770;23.400;2024-03-25T11:43:57;94663.59;;;11.41;59.07
32197;BME280;18697;42.770;23.400;2024-03-25T11:46:25;94655.22;;;11.67;59.61
32197;BME280;18697;42.770;23.400;2024-03-25T11:48:50;94659.47;;;11.62;56.22
32197;BME280;18697;42.770;23.400;2024-03-25T11:51:19;94661.03;;;11.69;56.49
32197;BME280;18697;42.770;23.400;2024-03-25T11:53:45;94660.97;;;11.95;59.24
32197;BME280;18697;42.770;23.400;2024-03-25T11:56:13;94656.31;;;12.17;57.46
32197;BME280;18697;42.770;23.400;2024-03-25T11:58:39;94677.09;;;12.28;55.01
32197;BME280;18697;42.770;23.400;2024-03-25T12:01:05;94670.66;;;12.05;52.80
32197;BME280;18697;42.770;23.400;2024-03-25T12:03:30;94665.22;;;11.84;52.25
32197;BME280;18697;42.770;23.400;2024-03-25T12:05:56;94675.06;;;11.80;53.73
32197;BME280;18697;42.770;23.400;2024-03-25T12:08:23;94664.25;;;11.93;52.71
32197;BME280;18697;42.770;23.400;2024-03-25T12:10:51;94663.53;;;11.98;52.60
32197;BME280;18697;42.770;23.400;2024-03-25T12:13:37;94672.84;;;11.95;50.64
32197;BME280;18697;42.770;23.400;2024-03-25T12:16:07;94683.47;;;11.91;51.79
32197;BME280;18697;42.770;23.400;2024-03-25T12:18:36;94665.22;;;11.84;53.45
32197;BME280;18697;42.770;23.400;2024-03-25T12:21:04;94666.34;;;12.04;55.27
32197;BME280;18697;42.770;23.400;2024-03-25T12:23:30;94666.28;;;12.41;55.30
32197;BME280;18697;42.770;23.400;2024-03-25T12:25:56;94674.91;;;12.43;53.74
32197;BME280;18697;42.770;23.400;2024-03-25T12:28:22;94679.50;;;12.52;50.45
32197;BME280;18697;42.770;23.400;2024-03-25T12:30:51;94685.72;;;12.30;49.46
32197;BME280;18697;42.770;23.400;2024-03-25T12:33:17;94676.06;;;12.20;51.19
32197;BME280;18697;42.770;23.400;2024-03-25T12:35:45;94672.38;;;12.45;51.77
32197;BME280;18697;42.770;23.400;2024-03-25T12:38:30;94664.38;;;12.69;49.41
32197;BME280;18697;42.770;23.400;2024-03-25T12:41:12;94670.22;;;12.77;48.99
32197;BME280;18697;42.770;23.400;2024-03-25T12:43:44;94672.56;;;13.01;51.27
32197;BME280;18697;42.770;23.400;2024-03-25T12:46:10;94664.28;;;13.18;48.35
32197;BME280;18697;42.770;23.400;2024-03-25T12:48:37;94675.88;;;13.05;45.87
32197;BME280;18697;42.770;23.400;2024-03-25T12:51:03;94673.16;;;13.16;49.43
32197;BME280;18697;42.770;23.400;2024-03-25T12:53:28;94677.59;;;12.86;50.80
32197;BME280;18697;42.770;23.400;2024-03-25T12:55:53;94676.00;;;12.14;50.21